sensor_id;sensor_type;location;lat;lon;timestamp;pressure;altitude;pressure_sealevel;temperature;humidity
28630;BME280;15817;42.130;24.762;2023-08-30T00:00:55;98669.81;;;24.14;100.00
28630;BME280;15817;42.130;24.762;2023-08-30T00:03:21;98659.91;;;24.13;100.00
28630;BME280;15817;42.130;24.762;2023-08-30T00:05:50;98670.06;;;24.11;100.00
28630;BME280;15817;42.130;24.762;2023-08-30T00:08:28;98662.41;;;24.05;100.00
28630;BME280;15817;42.130;24.762;2023-08-30T00:10:54;98660.53;;;24.05;100.00
28630;BME280;15817;42.130;24.762;2023-08-30T00:13:29;98658.94;;;24.03;100.00
28630;BME280;15817;42.130;24.762;2023-08-30T00:16:01;98656.59;;;23.98;100.00
28630;BME280;15817;42.130;24.762;2023-08-30T00:18:34;98662.75;;;24.00;99.25
28630;BME280;15817;42.130;24.762;2023-08-30T00:21:10;98651.28;;;23.97;99.01
28630;BME280;15817;42.130;24.762;2023-08-30T00:23:39;98655.09;;;23.94;99.38
28630;BME280;15817;42.130;24.762;2023-08-30T00:26:07;98648.56;;;23.97;98.77
28630;BME280;15817;42.130;24.762;2023-08-30T00:28:53;98654.13;;;23.95;98.83
28630;BME280;15817;42.130;24.762;2023-08-30T00:31:39;98652.38;;;23.94;98.69
28630;BME280;15817;42.130;24.762;2023-08-30T00:34:09;98655.84;;;23.96;99.22
28630;BME280;15817;42.130;24.762;2023-08-30T00:36:40;98662.28;;;23.95;97.59
28630;BME280;15817;42.130;24.762;2023-08-30T00:39:07;98674.63;;;23.99;95.88
28630;BME280;15817;42.130;24.762;2023-08-30T00:41:39;98666.84;;;23.95;95.23
28630;BME280;15817;42.130;24.762;2023-08-30T00:44:21;98659.16;;;23.89;93.89
28630;BME280;15817;42.130;24.762;2023-08-30T00:47:12;98669.44;;;23.85;93.28
28630;BME280;15817;42.130;24.762;2023-08-30T00:49:49;98671.63;;;23.80;93.27
28630;BME280;15817;42.130;24.762;2023-08-30T00:52:21;98674.72;;;23.75;92.18
28630;BME280;15817;42.130;24.762;2023-08-30T00:54:47;98679.19;;;23.76;92.05
28630;BME280;15817;42.130;24.762;2023-08-30T00:57:13;98671.59;;;23.69;91.76
28630;BME280;15817;42.130;24.762;2023-08-30T00:59:59;98675.06;;;23.71;91.58
28630;BME280;15817;42.130;24.762;2023-08-30T01:02:25;98668.78;;;23.70;91.56
28630;BME280;15817;42.130;24.762;2023-08-30T01:05:06;98663.47;;;23.69;90.80
28630;BME280;15817;42.130;24.762;2023-08-30T01:07:41;98664.44;;;23.68;91.08
28630;BME280;15817;42.130;24.762;2023-08-30T01:13:20;98685.31;;;23.67;91.54
28630;BME280;15817;42.130;24.762;2023-08-30T01:15:51;98684.44;;;23.67;92.08
28630;BME280;15817;42.130;24.762;2023-08-30T01:18:44;98682.34;;;23.59;90.71
28630;BME280;15817;42.130;24.762;2023-08-30T01:24:29;98685.38;;;23.55;90.18
28630;BME280;15817;42.130;24.762;2023-08-30T01:27:08;98695.91;;;23.59;89.72
28630;BME280;15817;42.130;24.762;2023-08-30T01:29:44;98695.25;;;23.56;89.93
28630;BME280;15817;42.130;24.762;2023-08-30T01:32:18;98691.56;;;23.57;89.29
28630;BME280;15817;42.130;24.762;2023-08-30T01:34:49;98701.44;;;23.58;89.30
28630;BME280;15817;42.130;24.762;2023-08-30T01:37:18;98701.69;;;23.55;89.48
28630;BME280;15817;42.130;24.762;2023-08-30T01:39:52;98713.28;;;23.57;89.07
28630;BME280;15817;42.130;24.762;2023-08-30T01:42:31;98703.66;;;23.53;89.24
28630;BME280;15817;42.130;24.762;2023-08-30T01:45:09;98711.31;;;23.59;89.26
28630;BME280;15817;42.130;24.762;2023-08-30T01:47:42;98698.97;;;23.55;88.93
28630;BME280;15817;42.130;24.762;2023-08-30T01:50:22;98704.16;;;23.58;88.94
28630;BME280;15817;42.130;24.762;2023-08-30T01:52:51;98709.09;;;23.53;88.53
28630;BME280;15817;42.130;24.762;2023-08-30T01:55:47;98715.13;;;23.56;88.75
28630;BME280;15817;42.130;24.762;2023-08-30T01:58:29;98708.34;;;23.51;89.32
28630;BME280;15817;42.130;24.762;2023-08-30T02:01:04;98720.94;;;23.52;89.19
28630;BME280;15817;42.130;24.762;2023-08-30T02:03:44;98707.78;;;23.45;89.42
28630;BME280;15817;42.130;24.762;2023-08-30T02:06:23;98718.53;;;23.47;88.74
28630;BME280;15817;42.130;24.762;2023-08-30T02:09:24;98719.97;;;23.53;88.65
28630;BME280;15817;42.130;24.762;2023-08-30T02:12:14;98708.53;;;23.47;88.47
28630;BME280;15817;42.130;24.762;2023-08-30T02:15:01;98714.72;;;23.50;89.07
28630;BME280;15817;42.130;24.762;2023-08-30T02:18:03;98704.97;;;23.47;88.67
28630;BME280;15817;42.130;24.762;2023-08-30T02:20:33;98700.75;;;23.43;88.44
28630;BME280;15817;42.130;24.762;2023-08-30T02:23:02;98697.66;;;23.36;88.30
28630;BME280;15817;42.130;24.762;2023-08-30T02:25:53;98705.91;;;23.35;88.95
28630;BME280;15817;42.130;24.762;2023-08-30T02:28:40;98701.88;;;23.40;88.77
28630;BME280;15817;42.130;24.762;2023-08-30T02:31:20;98698.00;;;23.32;88.59
28630;BME280;15817;42.130;24.762;2023-08-30T02:33:46;98699.22;;;23.28;88.87
28630;BME280;15817;42.130;24.762;2023-08-30T02:36:26;98705.88;;;23.24;89.24
28630;BME280;15817;42.130;24.762;2023-08-30T02:39:04;98713.50;;;23.19;90.63
28630;BME280;15817;42.130;24.762;2023-08-30T02:41:34;98700.63;;;23.09;90.88
28630;BME280;15817;42.130;24.762;2023-08-30T02:44:39;98686.81;;;23.13;92.37
28630;BME280;15817;42.130;24.762;2023-08-30T02:47:05;98699.41;;;23.14;91.62
28630;BME280;15817;42.130;24.762;2023-08-30T02:50:28;98700.88;;;23.06;90.71
28630;BME280;15817;42.130;24.762;2023-08-30T02:53:14;98717.13;;;23.06;91.80
28630;BME280;15817;42.130;24.762;2023-08-30T02:55:47;98711.81;;;23.05;93.29
28630;BME280;15817;42.130;24.762;2023-08-30T02:58:19;98711.19;;;23.01;93.14
28630;BME280;15817;42.130;24.762;2023-08-30T03:00:57;98705.88;;;23.00;92.08
28630;BME280;15817;42.130;24.762;2023-08-30T03:03:37;98715.75;;;23.01;92.42
28630;BME280;15817;42.130;24.762;2023-08-30T03:06:11;98714.66;;;23.03;92.87
28630;BME280;15817;42.130;24.762;2023-08-30T03:08:49;98714.53;;;23.05;92.64
28630;BME280;15817;42.130;24.762;2023-08-30T03:11:43;98740.22;;;23.12;92.73
28630;BME280;15817;42.130;24.762;2023-08-30T03:14:45;98718.88;;;23.07;92.39
28630;BME280;15817;42.130;24.762;2023-08-30T03:17:14;98730.44;;;23.09;92.21
28630;BME280;15817;42.130;24.762;2023-08-30T03:19:43;98732.44;;;23.07;92.11
28630;BME280;15817;42.130;24.762;2023-08-30T03:22:19;98738.09;;;23.04;91.75
28630;BME280;15817;42.130;24.762;2023-08-30T03:24:51;98736.34;;;23.03;90.94
28630;BME280;15817;42.130;24.762;2023-08-30T03:27:34;98732.56;;;23.06;91.50
28630;BME280;15817;42.130;24.762;2023-08-30T03:30:16;98746.13;;;23.06;91.45
28630;BME280;15817;42.130;24.762;2023-08-30T03:33:05;98752.25;;;23.08;91.17
28630;BME280;15817;42.130;24.762;2023-08-30T03:35:52;98742.75;;;23.02;90.14
28630;BME280;15817;42.130;24.762;2023-08-30T03:38:24;98749.69;;;23.06;89.92
28630;BME280;15817;42.130;24.762;2023-08-30T03:40:53;98742.63;;;23.04;89.73
28630;BME280;15817;42.130;24.762;2023-08-30T03:43:26;98738.94;;;23.05;89.34
28630;BME280;15817;42.130;24.762;2023-08-30T03:46:05;98741.78;;;23.03;89.73
28630;BME280;15817;42.130;24.762;2023-08-30T03:48:37;98756.97;;;23.06;89.72
28630;BME280;15817;42.130;24.762;2023-08-30T03:51:12;98752.41;;;23.06;89.48
28630;BME280;15817;42.130;24.762;2023-08-30T03:53:38;98745.34;;;23.04;89.23
28630;BME280;15817;42.130;24.762;2023-08-30T03:58:47;98752.84;;;23.00;89.38
28630;BME280;15817;42.130;24.762;2023-08-30T04:01:17;98761.84;;;23.01;89.53
28630;BME280;15817;42.130;24.762;2023-08-30T04:03:59;98762.81;;;23.00;89.04
28630;BME280;15817;42.130;24.762;2023-08-30T04:06:35;98770.75;;;23.03;89.91
28630;BME280;15817;42.130;24.762;2023-08-30T04:09:02;98776.38;;;23.00;90.06
28630;BME280;15817;42.130;24.762;2023-08-30T04:11:33;98779.84;;;23.02;89.95
28630;BME280;15817;42.130;24.762;2023-08-30T04:13:59;98774.44;;;23.02;89.22
28630;BME280;15817;42.130;24.762;2023-08-30T04:16:31;98774.22;;;23.05;89.59
28630;BME280;15817;42.130;24.762;2023-08-30T04:18:59;98776.66;;;23.08;89.31
28630;BME280;15817;42.130;24.762;2023-08-30T04:21:25;98774.97;;;23.07;88.71
28630;BME280;15817;42.130;24.762;2023-08-30T04:23:53;98771.38;;;23.06;87.89
28630;BME280;15817;42.130;24.762;2023-08-30T04:26:21;98772.25;;;23.07;88.42
28630;BME280;15817;42.130;24.762;2023-08-30T04:28:57;98778.41;;;23.09;88.36
28630;BME280;15817;42.130;24.762;2023-08-30T04:31:25;98779.16;;;23.11;87.50
28630;BME280;15817;42.130;24.762;2023-08-30T04:33:52;98781.75;;;23.13;86.73
28630;BME280;15817;42.130;24.762;2023-08-30T04:36:21;98777.00;;;23.16;86.17
28630;BME280;15817;42.130;24.762;2023-08-30T04:38:51;98776.00;;;23.17;86.20
28630;BME280;15817;42.130;24.762;2023-08-30T04:41:27;98768.84;;;23.16;86.08
28630;BME280;15817;42.130;24.762;2023-08-30T04:43:53;98767.97;;;23.16;85.80
28630;BME280;15817;42.130;24.762;2023-08-30T04:46:22;98775.66;;;23.22;85.41
28630;BME280;15817;42.130;24.762;2023-08-30T04:48:48;98779.00;;;23.25;86.55
28630;BME280;15817;42.130;24.762;2023-08-30T04:51:14;98784.66;;;23.22;87.20
28630;BME280;15817;42.130;24.762;2023-08-30T04:53:43;98784.75;;;23.21;87.03
28630;BME280;15817;42.130;24.762;2023-08-30T04:56:12;98782.91;;;23.21;86.31
28630;BME280;15817;42.130;24.762;2023-08-30T04:58:44;98776.41;;;23.24;86.74
28630;BME280;15817;42.130;24.762;2023-08-30T05:01:14;98775.31;;;23.26;86.29
28630;BME280;15817;42.130;24.762;2023-08-30T05:03:59;98777.66;;;23.31;86.07
28630;BME280;15817;42.130;24.762;2023-08-30T05:06:36;98777.66;;;23.31;86.25
28630;BME280;15817;42.130;24.762;2023-08-30T05:09:20;98785.47;;;23.35;86.31
28630;BME280;15817;42.130;24.762;2023-08-30T05:12:07;98786.44;;;23.34;87.02
28630;BME280;15817;42.130;24.762;2023-08-30T05:14:37;98782.00;;;23.33;86.78
28630;BME280;15817;42.130;24.762;2023-08-30T05:17:26;98784.81;;;23.32;86.87
28630;BME280;15817;42.130;24.762;2023-08-30T05:19:57;98783.09;;;23.31;87.84
28630;BME280;15817;42.130;24.762;2023-08-30T05:22:23;98788.41;;;23.32;87.15
28630;BME280;15817;42.130;24.762;2023-08-30T05:25:03;98801.25;;;23.30;86.43
28630;BME280;15817;42.130;24.762;2023-08-30T05:27:32;98796.53;;;23.32;86.23
28630;BME280;15817;42.130;24.762;2023-08-30T05:30:05;98800.13;;;23.33;85.80
28630;BME280;15817;42.130;24.762;2023-08-30T05:32:37;98797.41;;;23.33;85.92
28630;BME280;15817;42.130;24.762;2023-08-30T05:35:49;98805.56;;;23.33;85.76
28630;BME280;15817;42.130;24.762;2023-08-30T05:38:50;98804.56;;;23.34;85.29
28630;BME280;15817;42.130;24.762;2023-08-30T05:41:57;98803.47;;;23.36;84.81
28630;BME280;15817;42.130;24.762;2023-08-30T05:44:27;98805.56;;;23.33;85.08
28630;BME280;15817;42.130;24.762;2023-08-30T05:46:53;98805.44;;;23.34;85.50
28630;BME280;15817;42.130;24.762;2023-08-30T05:49:19;98804.56;;;23.34;85.45
28630;BME280;15817;42.130;24.762;2023-08-30T05:51:45;98807.41;;;23.32;84.25
28630;BME280;15817;42.130;24.762;2023-08-30T05:54:19;98810.00;;;23.34;85.03
28630;BME280;15817;42.130;24.762;2023-08-30T05:56:45;98813.47;;;23.36;84.76
28630;BME280;15817;42.130;24.762;2023-08-30T05:59:11;98824.00;;;23.40;85.43
28630;BME280;15817;42.130;24.762;2023-08-30T06:01:40;98834.97;;;23.39;84.65
28630;BME280;15817;42.130;24.762;2023-08-30T06:04:06;98821.38;;;23.39;85.10
28630;BME280;15817;42.130;24.762;2023-08-30T06:06:35;98808.16;;;23.34;84.73
28630;BME280;15817;42.130;24.762;2023-08-30T06:09:04;98811.97;;;23.32;86.05
28630;BME280;15817;42.130;24.762;2023-08-30T06:11:33;98827.25;;;23.33;86.14
28630;BME280;15817;42.130;24.762;2023-08-30T06:13:59;98825.53;;;23.32;86.41
28630;BME280;15817;42.130;24.762;2023-08-30T06:16:27;98822.09;;;23.30;86.45
28630;BME280;15817;42.130;24.762;2023-08-30T06:18:55;98829.09;;;23.32;86.25
28630;BME280;15817;42.130;24.762;2023-08-30T06:21:24;98832.56;;;23.34;86.61
28630;BME280;15817;42.130;24.762;2023-08-30T06:23:50;98826.94;;;23.37;87.32
28630;BME280;15817;42.130;24.762;2023-08-30T06:26:19;98817.28;;;23.33;86.23
28630;BME280;15817;42.130;24.762;2023-08-30T06:28:48;98818.03;;;23.35;87.80
28630;BME280;15817;42.130;24.762;2023-08-30T06:31:22;98813.25;;;23.39;86.75
28630;BME280;15817;42.130;24.762;2023-08-30T06:33:48;98823.13;;;23.40;86.22
28630;BME280;15817;42.130;24.762;2023-08-30T06:36:14;98838.28;;;23.42;87.27
28630;BME280;15817;42.130;24.762;2023-08-30T06:38:43;98840.56;;;23.48;86.51
28630;BME280;15817;42.130;24.762;2023-08-30T06:41:08;98836.44;;;23.43;86.85
28630;BME280;15817;42.130;24.762;2023-08-30T06:43:37;98838.06;;;23.45;86.31
28630;BME280;15817;42.130;24.762;2023-08-30T06:46:02;98847.72;;;23.50;85.54
28630;BME280;15817;42.130;24.762;2023-08-30T06:48:28;98849.28;;;23.54;85.30
28630;BME280;15817;42.130;24.762;2023-08-30T06:50:57;98850.97;;;23.55;86.22
28630;BME280;15817;42.130;24.762;2023-08-30T06:53:26;98847.53;;;23.53;86.21
28630;BME280;15817;42.130;24.762;2023-08-30T06:56:08;98848.25;;;23.55;85.60
28630;BME280;15817;42.130;24.762;2023-08-30T06:58:34;98851.84;;;23.55;86.36
28630;BME280;15817;42.130;24.762;2023-08-30T07:01:00;98843.09;;;23.52;85.34
28630;BME280;15817;42.130;24.762;2023-08-30T07:03:25;98845.44;;;23.56;85.62
28630;BME280;15817;42.130;24.762;2023-08-30T07:05:52;98848.69;;;23.61;86.12
28630;BME280;15817;42.130;24.762;2023-08-30T07:08:17;98852.66;;;23.68;86.92
28630;BME280;15817;42.130;24.762;2023-08-30T07:10:43;98850.59;;;23.72;86.38
28630;BME280;15817;42.130;24.762;2023-08-30T07:13:12;98850.09;;;23.78;86.61
28630;BME280;15817;42.130;24.762;2023-08-30T07:15:41;98846.53;;;23.77;86.29
28630;BME280;15817;42.130;24.762;2023-08-30T07:18:08;98844.44;;;23.81;85.77
28630;BME280;15817;42.130;24.762;2023-08-30T07:20:34;98854.25;;;23.95;85.14
28630;BME280;15817;42.130;24.762;2023-08-30T07:23:02;98853.78;;;24.01;85.03
28630;BME280;15817;42.130;24.762;2023-08-30T07:25:29;98846.78;;;24.09;84.01
28630;BME280;15817;42.130;24.762;2023-08-30T07:27:56;98850.63;;;24.18;83.76
28630;BME280;15817;42.130;24.762;2023-08-30T07:30:22;98849.94;;;24.27;82.62
28630;BME280;15817;42.130;24.762;2023-08-30T07:32:48;98854.53;;;24.38;80.93
28630;BME280;15817;42.130;24.762;2023-08-30T07:35:14;98851.72;;;24.50;81.00
28630;BME280;15817;42.130;24.762;2023-08-30T07:37:39;98842.31;;;24.43;81.10
28630;BME280;15817;42.130;24.762;2023-08-30T07:40:06;98834.63;;;24.37;81.56
28630;BME280;15817;42.130;24.762;2023-08-30T07:42:32;98843.34;;;24.65;80.38
28630;BME280;15817;42.130;24.762;2023-08-30T07:44:58;98842.34;;;24.88;79.78
28630;BME280;15817;42.130;24.762;2023-08-30T07:47:24;98841.84;;;25.05;77.97
28630;BME280;15817;42.130;24.762;2023-08-30T07:49:49;98840.97;;;25.27;77.16
28630;BME280;15817;42.130;24.762;2023-08-30T07:52:15;98838.72;;;25.43;75.35
28630;BME280;15817;42.130;24.762;2023-08-30T07:54:41;98839.78;;;25.63;75.64
28630;BME280;15817;42.130;24.762;2023-08-30T07:57:07;98839.13;;;25.82;74.79
28630;BME280;15817;42.130;24.762;2023-08-30T07:59:36;98838.19;;;25.92;75.09
28630;BME280;15817;42.130;24.762;2023-08-30T08:02:06;98841.31;;;26.09;73.62
28630;BME280;15817;42.130;24.762;2023-08-30T08:04:36;98843.69;;;26.34;73.09
28630;BME280;15817;42.130;24.762;2023-08-30T08:07:02;98841.09;;;26.53;71.12
28630;BME280;15817;42.130;24.762;2023-08-30T08:09:28;98834.88;;;26.72;70.37
28630;BME280;15817;42.130;24.762;2023-08-30T08:11:55;98831.94;;;26.85;71.02
28630;BME280;15817;42.130;24.762;2023-08-30T08:14:23;98848.41;;;27.04;69.32
28630;BME280;15817;42.130;24.762;2023-08-30T08:16:49;98834.50;;;27.17;69.24
28630;BME280;15817;42.130;24.762;2023-08-30T08:19:14;98834.66;;;27.25;67.85
28630;BME280;15817;42.130;24.762;2023-08-30T08:21:40;98825.94;;;27.31;67.61
28630;BME280;15817;42.130;24.762;2023-08-30T08:24:30;98823.41;;;26.99;68.88
28630;BME280;15817;42.130;24.762;2023-08-30T08:26:59;98825.28;;;27.08;68.50
28630;BME280;15817;42.130;24.762;2023-08-30T08:29:30;98825.34;;;27.37;69.01
28630;BME280;15817;42.130;24.762;2023-08-30T08:32:08;98827.75;;;27.70;67.00
28630;BME280;15817;42.130;24.762;2023-08-30T08:34:34;98838.69;;;27.90;65.85
28630;BME280;15817;42.130;24.762;2023-08-30T08:37:00;98830.91;;;28.04;64.29
28630;BME280;15817;42.130;24.762;2023-08-30T08:39:31;98820.84;;;28.15;65.56
28630;BME280;15817;42.130;24.762;2023-08-30T08:42:01;98819.84;;;28.25;65.47
28630;BME280;15817;42.130;24.762;2023-08-30T08:44:47;98805.41;;;28.42;62.92
28630;BME280;15817;42.130;24.762;2023-08-30T08:47:18;98804.38;;;28.53;61.43
28630;BME280;15817;42.130;24.762;2023-08-30T08:49:48;98804.75;;;28.68;61.31
28630;BME280;15817;42.130;24.762;2023-08-30T08:52:17;98796.25;;;28.71;61.27
28630;BME280;15817;42.130;24.762;2023-08-30T08:54:43;98800.25;;;28.86;63.10
28630;BME280;15817;42.130;24.762;2023-08-30T08:57:14;98796.63;;;28.95;61.97
28630;BME280;15817;42.130;24.762;2023-08-30T08:59:43;98804.47;;;29.08;61.10
28630;BME280;15817;42.130;24.762;2023-08-30T09:02:12;98794.34;;;29.18;60.56
28630;BME280;15817;42.130;24.762;2023-08-30T09:04:41;98794.44;;;29.26;59.63
28630;BME280;15817;42.130;24.762;2023-08-30T09:07:10;98785.19;;;29.27;58.11
28630;BME280;15817;42.130;24.762;2023-08-30T09:09:40;98788.78;;;29.37;58.03
28630;BME280;15817;42.130;24.762;2023-08-30T09:12:06;98788.84;;;29.45;59.12
28630;BME280;15817;42.130;24.762;2023-08-30T09:14:32;98773.97;;;29.48;58.48
28630;BME280;15817;42.130;24.762;2023-08-30T09:17:02;98785.72;;;29.58;57.02
28630;BME280;15817;42.130;24.762;2023-08-30T09:19:29;98782.03;;;29.67;57.73
28630;BME280;15817;42.130;24.762;2023-08-30T09:21:57;98775.88;;;29.83;57.06
28630;BME280;15817;42.130;24.762;2023-08-30T09:24:24;98769.81;;;29.79;56.80
28630;BME280;15817;42.130;24.762;2023-08-30T09:26:54;98773.69;;;29.86;56.06
28630;BME280;15817;42.130;24.762;2023-08-30T09:29:30;98780.19;;;30.03;55.58
28630;BME280;15817;42.130;24.762;2023-08-30T09:31:57;98759.25;;;30.02;55.81
28630;BME280;15817;42.130;24.762;2023-08-30T09:34:24;98770.31;;;30.10;55.01
28630;BME280;15817;42.130;24.762;2023-08-30T09:36:53;98760.31;;;30.27;55.50
28630;BME280;15817;42.130;24.762;2023-08-30T09:39:20;98755.53;;;30.29;54.04
28630;BME280;15817;42.130;24.762;2023-08-30T09:41:50;98753.84;;;30.36;53.66
28630;BME280;15817;42.130;24.762;2023-08-30T09:44:20;98754.38;;;30.40;52.90
28630;BME280;15817;42.130;24.762;2023-08-30T09:46:53;98754.06;;;30.43;52.74
28630;BME280;15817;42.130;24.762;2023-08-30T09:49:26;98752.31;;;30.59;52.25
28630;BME280;15817;42.130;24.762;2023-08-30T09:51:53;98741.16;;;30.61;51.57
28630;BME280;15817;42.130;24.762;2023-08-30T09:54:25;98746.28;;;30.56;51.63
28630;BME280;15817;42.130;24.762;2023-08-30T09:56:53;98748.53;;;30.60;51.88
28630;BME280;15817;42.130;24.762;2023-08-30T09:59:22;98754.25;;;30.67;52.31
28630;BME280;15817;42.130;24.762;2023-08-30T10:01:49;98740.47;;;30.59;50.52
28630;BME280;15817;42.130;24.762;2023-08-30T10:04:16;98742.72;;;30.64;51.34
28630;BME280;15817;42.130;24.762;2023-08-30T10:06:45;98742.59;;;30.73;51.86
28630;BME280;15817;42.130;24.762;2023-08-30T10:09:14;98733.19;;;30.84;50.77
28630;BME280;15817;42.130;24.762;2023-08-30T10:11:40;98738.22;;;30.88;50.30
28630;BME280;15817;42.130;24.762;2023-08-30T10:14:07;98734.63;;;31.04;49.08
28630;BME280;15817;42.130;24.762;2023-08-30T10:16:48;98736.94;;;31.09;48.94
28630;BME280;15817;42.130;24.762;2023-08-30T10:21:46;98734.41;;;31.15;48.02
28630;BME280;15817;42.130;24.762;2023-08-30T10:24:30;98738.69;;;31.18;48.98
28630;BME280;15817;42.130;24.762;2023-08-30T10:26:58;98722.34;;;31.16;48.70
28630;BME280;15817;42.130;24.762;2023-08-30T10:29:35;98724.75;;;31.11;48.97
28630;BME280;15817;42.130;24.762;2023-08-30T10:32:06;98725.28;;;31.15;50.01
28630;BME280;15817;42.130;24.762;2023-08-30T10:34:37;98723.91;;;31.27;49.45
28630;BME280;15817;42.130;24.762;2023-08-30T10:37:10;98722.78;;;31.38;47.46
28630;BME280;15817;42.130;24.762;2023-08-30T10:39:49;98710.38;;;31.34;46.90
28630;BME280;15817;42.130;24.762;2023-08-30T10:42:16;98710.72;;;31.39;48.60
28630;BME280;15817;42.130;24.762;2023-08-30T10:45:01;98716.03;;;31.24;48.23
28630;BME280;15817;42.130;24.762;2023-08-30T10:47:33;98725.16;;;31.33;48.55
28630;BME280;15817;42.130;24.762;2023-08-30T10:50:07;98711.03;;;31.27;49.71
28630;BME280;15817;42.130;24.762;2023-08-30T10:52:57;98699.22;;;31.35;47.93
28630;BME280;15817;42.130;24.762;2023-08-30T10:55:23;98704.88;;;31.34;47.21
28630;BME280;15817;42.130;24.762;2023-08-30T10:58:03;98693.03;;;30.83;49.65
28630;BME280;15817;42.130;24.762;2023-08-30T11:00:32;98688.19;;;31.11;50.18
28630;BME280;15817;42.130;24.762;2023-08-30T11:03:03;98698.69;;;31.31;49.25
28630;BME280;15817;42.130;24.762;2023-08-30T11:05:32;98682.22;;;31.40;49.82
28630;BME280;15817;42.130;24.762;2023-08-30T11:08:18;98690.81;;;30.86;49.91
28630;BME280;15817;42.130;24.762;2023-08-30T11:11:01;98691.97;;;30.68;49.17
28630;BME280;15817;42.130;24.762;2023-08-30T11:13:33;98689.06;;;30.43;50.70
28630;BME280;15817;42.130;24.762;2023-08-30T11:16:02;98683.19;;;30.64;51.33
28630;BME280;15817;42.130;24.762;2023-08-30T11:18:37;98685.47;;;30.43;51.11
28630;BME280;15817;42.130;24.762;2023-08-30T11:21:09;98682.66;;;30.35;52.53
28630;BME280;15817;42.130;24.762;2023-08-30T11:23:35;98666.78;;;30.80;51.59
28630;BME280;15817;42.130;24.762;2023-08-30T11:26:22;98667.03;;;30.61;52.69
28630;BME280;15817;42.130;24.762;2023-08-30T11:28:51;98670.72;;;30.44;52.78
28630;BME280;15817;42.130;24.762;2023-08-30T11:31:23;98677.69;;;30.56;52.84
28630;BME280;15817;42.130;24.762;2023-08-30T11:33:57;98670.09;;;30.58;52.21
28630;BME280;15817;42.130;24.762;2023-08-30T11:36:25;98675.28;;;30.61;50.88
28630;BME280;15817;42.130;24.762;2023-08-30T11:38:55;98676.53;;;30.41;51.86
28630;BME280;15817;42.130;24.762;2023-08-30T11:41:24;98668.59;;;30.30;52.31
28630;BME280;15817;42.130;24.762;2023-08-30T11:43:51;98663.28;;;30.36;53.15
28630;BME280;15817;42.130;24.762;2023-08-30T11:46:17;98649.06;;;30.33;50.76
28630;BME280;15817;42.130;24.762;2023-08-30T11:48:44;98655.22;;;30.35;51.67
28630;BME280;15817;42.130;24.762;2023-08-30T11:51:14;98656.16;;;30.17;51.84
28630;BME280;15817;42.130;24.762;2023-08-30T11:53:40;98652.38;;;30.10;52.35
28630;BME280;15817;42.130;24.762;2023-08-30T11:56:06;98649.78;;;30.09;51.04
28630;BME280;15817;42.130;24.762;2023-08-30T11:58:35;98644.34;;;30.17;51.70
28630;BME280;15817;42.130;24.762;2023-08-30T12:01:02;98635.25;;;30.16;52.22
28630;BME280;15817;42.130;24.762;2023-08-30T12:03:29;98632.69;;;30.23;53.56
28630;BME280;15817;42.130;24.762;2023-08-30T12:05:56;98640.75;;;30.24;53.28
28630;BME280;15817;42.130;24.762;2023-08-30T12:08:27;98644.88;;;30.20;53.02
28630;BME280;15817;42.130;24.762;2023-08-30T12:10:54;98632.38;;;30.26;53.39
28630;BME280;15817;42.130;24.762;2023-08-30T12:13:25;98638.69;;;30.18;54.33
28630;BME280;15817;42.130;24.762;2023-08-30T12:15:52;98634.69;;;30.13;53.85
28630;BME280;15817;42.130;24.762;2023-08-30T12:18:22;98618.50;;;30.28;54.50
28630;BME280;15817;42.130;24.762;2023-08-30T12:20:57;98625.06;;;30.69;55.17
28630;BME280;15817;42.130;24.762;2023-08-30T12:23:29;98627.34;;;30.89;52.73
28630;BME280;15817;42.130;24.762;2023-08-30T12:26:10;98616.94;;;31.09;53.27
28630;BME280;15817;42.130;24.762;2023-08-30T12:28:38;98610.00;;;30.97;52.53
28630;BME280;15817;42.130;24.762;2023-08-30T12:31:07;98611.19;;;30.86;52.51
28630;BME280;15817;42.130;24.762;2023-08-30T12:33:43;98607.97;;;31.07;52.30
28630;BME280;15817;42.130;24.762;2023-08-30T12:36:18;98612.81;;;31.13;53.03
28630;BME280;15817;42.130;24.762;2023-08-30T12:38:44;98606.47;;;31.13;51.28
28630;BME280;15817;42.130;24.762;2023-08-30T12:41:10;98585.19;;;31.15;51.99
28630;BME280;15817;42.130;24.762;2023-08-30T12:43:39;98599.78;;;31.15;50.44
28630;BME280;15817;42.130;24.762;2023-08-30T12:46:17;98594.78;;;31.19;49.46
28630;BME280;15817;42.130;24.762;2023-08-30T12:48:42;98590.47;;;31.16;48.50
28630;BME280;15817;42.130;24.762;2023-08-30T12:51:11;98593.09;;;31.26;50.05
28630;BME280;15817;42.130;24.762;2023-08-30T12:54:02;98578.97;;;31.29;50.41
28630;BME280;15817;42.130;24.762;2023-08-30T12:56:36;98571.94;;;31.35;50.57
28630;BME280;15817;42.130;24.762;2023-08-30T12:59:02;98566.97;;;31.38;49.60
28630;BME280;15817;42.130;24.762;2023-08-30T13:01:34;98572.28;;;31.40;49.85
28630;BME280;15817;42.130;24.762;2023-08-30T13:03:59;98567.47;;;31.42;49.20
28630;BME280;15817;42.130;24.762;2023-08-30T13:06:25;98564.41;;;31.37;49.30
28630;BME280;15817;42.130;24.762;2023-08-30T13:08:53;98571.63;;;31.38;47.81
28630;BME280;15817;42.130;24.762;2023-08-30T13:11:24;98558.22;;;31.35;48.77
28630;BME280;15817;42.130;24.762;2023-08-30T13:13:51;98563.00;;;31.33;49.84
28630;BME280;15817;42.130;24.762;2023-08-30T13:16:17;98559.75;;;31.29;48.60
28630;BME280;15817;42.130;24.762;2023-08-30T13:18:48;98563.19;;;31.31;48.67
28630;BME280;15817;42.130;24.762;2023-08-30T13:21:13;98550.31;;;31.31;48.98
28630;BME280;15817;42.130;24.762;2023-08-30T13:23:39;98553.41;;;31.37;48.54
28630;BME280;15817;42.130;24.762;2023-08-30T13:26:05;98546.03;;;31.37;49.44
28630;BME280;15817;42.130;24.762;2023-08-30T13:28:31;98533.13;;;31.38;49.62